Time;durP1;ratioP1;P1;durP2;ratioP2;P2;SDS_P1;SDS_P2;PMS_P1;PMS_P2;Temp;Humidity;BMP_temperature;BMP_pressure;BME280_temperature;BME280_humidity;BME280_pressure;Samples;Min_cycle;Max_cycle;Signal;HPM_P1;HPM_P2
2021/12/05 00:24:30;;;;;;;3.90;1.37;;;;;;;;;;5053322;28;20411;-68
2021/12/05 00:27:03;;;;;;;3.10;1.20;;;;;;;;;;5052548;28;20913;-68
2021/12/05 00:29:48;;;;;;;5.93;1.23;;;;;;;;;;5051868;28;20426;-68
2021/12/05 00:32:22;;;;;;;3.43;1.47;;;;;;;;;;5052855;28;20426;-70
2021/12/05 00:38:24;;;;;;;9.47;2.37;;;;;;;;;;5051542;28;20481;-68
2021/12/05 00:43:25;;;;;;;4.57;1.73;;;;;;;;;;5032668;28;20424;-68
2021/12/05 01:02:30;;;;;;;2.40;1.50;;;;;;;;;;5032678;28;20769;-68
2021/12/05 01:07:56;;;;;;;2.60;1.20;;;;;;;;;;5034126;28;20432;-68
2021/12/05 01:15:55;;;;;;;4.27;1.67;;;;;;;;;;5045523;28;20535;-67
2021/12/05 01:18:21;;;;;;;2.00;1.63;;;;;;;;;;5055756;28;20825;-68
2021/12/05 01:20:52;;;;;;;3.23;1.30;;;;;;;;;;5055878;28;20769;-68
2021/12/05 01:31:32;;;;;;;1.70;1.17;;;;;;;;;;5035758;28;20434;-68
2021/12/05 02:02:55;;;;;;;2.20;1.50;;;;;;;;;;5035059;28;20416;-68
2021/12/05 02:30:24;;;;;;;2.10;1.70;;;;;;;;;;5035080;28;20487;-68
2021/12/05 02:35:38;;;;;;;2.80;1.10;;;;;;;;;;5054322;28;20546;-68
2021/12/05 02:43:42;;;;;;;1.40;1.30;;;;;;;;;;5034341;28;20475;-68
2021/12/05 02:46:10;;;;;;;1.33;1.07;;;;;;;;;;5034364;28;20884;-69
2021/12/05 02:48:37;;;;;;;5.70;1.60;;;;;;;;;;5032842;28;20515;-69
2021/12/05 02:51:06;;;;;;;1.57;1.20;;;;;;;;;;5034222;28;20429;-69
2021/12/05 02:53:43;;;;;;;3.23;1.30;;;;;;;;;;5034126;28;20398;-69
2021/12/05 02:56:11;;;;;;;3.27;1.37;;;;;;;;;;5047646;28;20568;-68
2021/12/05 02:58:52;;;;;;;4.07;1.40;;;;;;;;;;5054001;28;20444;-69
2021/12/05 03:01:36;;;;;;;3.43;1.30;;;;;;;;;;5053923;28;20406;-68
2021/12/05 03:04:03;;;;;;;2.87;1.47;;;;;;;;;;5036560;28;20451;-68
2021/12/05 03:06:32;;;;;;;1.57;1.30;;;;;;;;;;5033799;28;20411;-67
2021/12/05 03:09:12;;;;;;;2.90;1.20;;;;;;;;;;5033812;28;20457;-68
2021/12/05 03:11:38;;;;;;;1.70;1.10;;;;;;;;;;5044181;28;20772;-67
2021/12/05 03:14:04;;;;;;;4.10;1.33;;;;;;;;;;5053533;28;20404;-68
2021/12/05 03:16:31;;;;;;;4.20;1.70;;;;;;;;;;5053655;28;20506;-69
2021/12/05 03:18:57;;;;;;;1.27;1.10;;;;;;;;;;5047403;28;20419;-68
2021/12/05 03:21:24;;;;;;;3.83;2.17;;;;;;;;;;5033672;28;20406;-69
2021/12/05 03:23:51;;;;;;;1.77;1.50;;;;;;;;;;5033541;28;20396;-67
2021/12/05 03:26:19;;;;;;;1.83;1.20;;;;;;;;;;5035635;28;20989;-68
2021/12/05 03:28:45;;;;;;;1.60;1.50;;;;;;;;;;5053328;28;20414;-68
2021/12/05 03:31:12;;;;;;;4.10;1.50;;;;;;;;;;5052808;28;20498;-68
2021/12/05 03:33:38;;;;;;;1.77;1.53;;;;;;;;;;5053413;28;20728;-68
2021/12/05 03:36:06;;;;;;;1.93;1.23;;;;;;;;;;5047167;28;20475;-67
2021/12/05 03:38:32;;;;;;;2.53;1.60;;;;;;;;;;5033279;28;20929;-68
2021/12/05 03:40:58;;;;;;;2.07;1.20;;;;;;;;;;5033282;28;20407;-68
2021/12/05 03:43:24;;;;;;;1.40;1.30;;;;;;;;;;5033314;28;20415;-68
2021/12/05 03:45:54;;;;;;;2.77;1.50;;;;;;;;;;5033197;28;20422;-68
2021/12/05 03:48:22;;;;;;;1.87;1.37;;;;;;;;;;5034248;28;20422;-68
2021/12/05 03:50:49;;;;;;;1.40;1.30;;;;;;;;;;5034076;28;20414;-66
2021/12/05 03:53:15;;;;;;;1.73;1.47;;;;;;;;;;5033207;28;20498;-68
2021/12/05 03:55:46;;;;;;;1.33;1.00;;;;;;;;;;5032813;28;20521;-68
2021/12/05 03:58:12;;;;;;;2.13;1.37;;;;;;;;;;5033173;28;20415;-66
2021/12/05 04:00:40;;;;;;;2.07;1.70;;;;;;;;;;5033116;28;20391;-68
2021/12/05 04:03:08;;;;;;;2.70;1.27;;;;;;;;;;5032923;28;20410;-67
2021/12/05 04:05:34;;;;;;;2.20;1.57;;;;;;;;;;5052847;28;20462;-68
2021/12/05 04:08:01;;;;;;;1.40;1.30;;;;;;;;;;5052851;28;20411;-68
2021/12/05 04:10:28;;;;;;;2.70;1.60;;;;;;;;;;5051728;28;20399;-67
2021/12/05 04:12:54;;;;;;;3.57;1.70;;;;;;;;;;5052097;28;20427;-67
2021/12/05 04:15:21;;;;;;;2.07;1.10;;;;;;;;;;5052846;28;20523;-68
2021/12/05 04:17:48;;;;;;;3.53;1.40;;;;;;;;;;5052867;28;20403;-68
2021/12/05 04:20:14;;;;;;;1.20;1.10;;;;;;;;;;5052872;28;20400;-68
2021/12/05 04:22:41;;;;;;;1.70;1.57;;;;;;;;;;5051959;28;20460;-67
2021/12/05 04:25:10;;;;;;;1.30;1.20;;;;;;;;;;5052285;28;20427;-68
2021/12/05 04:27:37;;;;;;;3.70;1.20;;;;;;;;;;5052796;28;20409;-68
2021/12/05 04:30:03;;;;;;;1.70;1.40;;;;;;;;;;5042414;28;20446;-68
2021/12/05 04:32:29;;;;;;;1.43;1.00;;;;;;;;;;5032873;28;20464;-68
2021/12/05 04:34:55;;;;;;;3.43;1.37;;;;;;;;;;5032680;28;20868;-68
2021/12/05 04:37:23;;;;;;;2.33;1.53;;;;;;;;;;5032742;28;20507;-69
2021/12/05 04:39:50;;;;;;;3.20;1.50;;;;;;;;;;5032772;28;20416;-68
2021/12/05 04:42:16;;;;;;;2.70;1.20;;;;;;;;;;5034370;28;20442;-69
2021/12/05 04:44:42;;;;;;;4.70;1.50;;;;;;;;;;5037588;28;20456;-68
2021/12/05 04:47:09;;;;;;;3.67;1.40;;;;;;;;;;5055608;28;20436;-67
2021/12/05 04:49:36;;;;;;;6.20;1.43;;;;;;;;;;5055215;28;20418;-69
2021/12/05 04:52:02;;;;;;;2.43;1.20;;;;;;;;;;5054988;28;20833;-68
2021/12/05 04:54:28;;;;;;;5.20;1.30;;;;;;;;;;5055909;28;20534;-67
2021/12/05 04:56:54;;;;;;;1.40;1.30;;;;;;;;;;5036343;28;20462;-69
2021/12/05 04:59:23;;;;;;;1.50;1.00;;;;;;;;;;5036312;28;20412;-68
2021/12/05 05:01:50;;;;;;;2.03;1.23;;;;;;;;;;5036255;28;20398;-67
2021/12/05 05:04:24;;;;;;;3.63;1.87;;;;;;;;;;5036222;28;20422;-68
2021/12/05 05:06:50;;;;;;;3.37;1.90;;;;;;;;;;5036083;28;20399;-69
2021/12/05 05:09:17;;;;;;;1.83;1.20;;;;;;;;;;5036087;28;20415;-68
2021/12/05 05:11:43;;;;;;;3.63;1.30;;;;;;;;;;5036044;28;20400;-68
2021/12/05 05:14:09;;;;;;;3.67;1.37;;;;;;;;;;5052929;28;20860;-68
2021/12/05 05:16:36;;;;;;;1.20;1.10;;;;;;;;;;5055861;28;20438;-68
2021/12/05 05:19:02;;;;;;;5.83;1.43;;;;;;;;;;5055811;28;20449;-68
2021/12/05 05:21:39;;;;;;;2.03;1.10;;;;;;;;;;5050828;28;20465;-68
2021/12/05 05:27:11;;;;;;;4.23;1.93;;;;;;;;;;5035589;28;20927;-68
2021/12/05 05:40:34;;;;;;;3.53;1.43;;;;;;;;;;5035878;28;20922;-68
2021/12/05 05:50:36;;;;;;;1.90;1.20;;;;;;;;;;5055254;28;20432;-68
2021/12/05 05:53:02;;;;;;;1.20;0.97;;;;;;;;;;5052281;28;20469;-68
2021/12/05 05:55:28;;;;;;;2.43;1.30;;;;;;;;;;5053307;28;21002;-68
2021/12/05 06:00:34;;;;;;;2.60;1.43;;;;;;;;;;5055094;28;20415;-70
2021/12/05 06:05:45;;;;;;;3.47;1.30;;;;;;;;;;5055256;28;20405;-68
2021/12/05 06:08:11;;;;;;;2.60;1.20;;;;;;;;;;5054965;28;20497;-66
2021/12/05 06:10:37;;;;;;;3.20;1.30;;;;;;;;;;5054071;28;20422;-66
2021/12/05 06:13:04;;;;;;;2.60;1.80;;;;;;;;;;5054789;28;20406;-65
2021/12/05 06:15:30;;;;;;;2.70;1.30;;;;;;;;;;5054719;28;21050;-64
2021/12/05 06:17:56;;;;;;;5.40;1.20;;;;;;;;;;5054803;28;20399;-65
2021/12/05 06:20:25;;;;;;;1.27;1.10;;;;;;;;;;5053898;28;20422;-66
2021/12/05 06:22:52;;;;;;;5.70;1.13;;;;;;;;;;5054545;28;20411;-66
2021/12/05 06:25:22;;;;;;;4.10;1.20;;;;;;;;;;5054452;28;20989;-66
2021/12/05 06:27:48;;;;;;;2.23;1.53;;;;;;;;;;5052969;28;20480;-66
2021/12/05 06:30:20;;;;;;;2.77;1.20;;;;;;;;;;5034713;28;20503;-66
2021/12/05 06:48:32;;;;;;;1.70;1.40;;;;;;;;;;5034347;28;20884;-68
2021/12/05 06:50:58;;;;;;;1.30;1.20;;;;;;;;;;5034159;28;20412;-68
2021/12/05 06:53:24;;;;;;;1.40;1.30;;;;;;;;;;5035135;28;20928;-68
2021/12/05 06:55:50;;;;;;;4.50;1.97;;;;;;;;;;5052330;28;20969;-68
2021/12/05 06:58:16;;;;;;;2.80;1.37;;;;;;;;;;5054174;28;20462;-68
2021/12/05 07:00:42;;;;;;;2.40;1.30;;;;;;;;;;5053961;28;20518;-65
2021/12/05 07:03:09;;;;;;;1.50;1.40;;;;;;;;;;5052981;28;20501;-65
2021/12/05 07:05:48;;;;;;;3.43;1.30;;;;;;;;;;5052986;28;20924;-66
2021/12/05 07:08:16;;;;;;;1.40;1.23;;;;;;;;;;5053842;28;20399;-66
2021/12/05 07:10:50;;;;;;;1.97;1.20;;;;;;;;;;5053782;28;20402;-69
2021/12/05 07:16:15;;;;;;;2.00;1.07;;;;;;;;;;5053684;28;20565;-68
2021/12/05 07:18:57;;;;;;;1.93;1.20;;;;;;;;;;5053669;28;20401;-68
2021/12/05 07:21:33;;;;;;;2.60;1.00;;;;;;;;;;5047584;28;20419;-69
2021/12/05 07:42:51;;;;;;;4.27;1.23;;;;;;;;;;5053202;28;20449;-68
2021/12/05 07:45:22;;;;;;;2.30;1.00;;;;;;;;;;5053186;28;20882;-67
2021/12/05 07:47:53;;;;;;;1.90;1.53;;;;;;;;;;5046930;28;20522;-67
2021/12/05 07:50:28;;;;;;;2.20;1.33;;;;;;;;;;5033387;28;20396;-68
2021/12/05 07:53:02;;;;;;;3.20;1.40;;;;;;;;;;5033135;28;20450;-68
2021/12/05 07:55:36;;;;;;;0.80;0.80;;;;;;;;;;5032925;28;20482;-66
2021/12/05 08:16:53;;;;;;;3.73;1.07;;;;;;;;;;5038804;28;20429;-66
2021/12/05 08:19:19;;;;;;;5.30;1.57;;;;;;;;;;5037175;28;20952;-68
2021/12/05 08:21:46;;;;;;;1.93;1.50;;;;;;;;;;5036936;28;20409;-68
2021/12/05 08:24:12;;;;;;;2.10;1.03;;;;;;;;;;5036946;28;20442;-68
2021/12/05 08:26:39;;;;;;;2.40;1.30;;;;;;;;;;5036537;28;20446;-68
2021/12/05 08:29:12;;;;;;;4.60;1.70;;;;;;;;;;5036956;28;20477;-68
2021/12/05 08:34:43;;;;;;;1.30;1.20;;;;;;;;;;5039133;28;20431;-68
2021/12/05 09:26:56;;;;;;;1.20;1.10;;;;;;;;;;5073342;28;20439;-65
2021/12/05 10:16:58;;;;;;;1.30;0.90;;;;;;;;;;5034886;28;20415;-67
2021/12/05 10:33:53;;;;;;;1.30;1.00;;;;;;;;;;5053472;28;20420;-67
2021/12/05 10:36:23;;;;;;;1.00;0.90;;;;;;;;;;5054392;28;20815;-68
2021/12/05 10:38:52;;;;;;;1.93;0.80;;;;;;;;;;5053928;28;20401;-67
2021/12/05 10:41:48;;;;;;;2.20;0.90;;;;;;;;;;5047009;28;20430;-67
2021/12/05 10:44:08;;;;;;;1.70;1.20;;;;;;;;;;5034026;28;20447;-68
2021/12/05 10:46:35;;;;;;;1.57;1.10;;;;;;;;;;5034356;28;20410;-67
2021/12/05 10:49:06;;;;;;;2.80;1.07;;;;;;;;;;5034288;28;20410;-66
2021/12/05 10:51:37;;;;;;;1.90;1.67;;;;;;;;;;5033981;28;20427;-65
2021/12/05 10:54:03;;;;;;;1.20;0.87;;;;;;;;;;5034286;28;20425;-65
2021/12/05 10:56:34;;;;;;;1.13;1.03;;;;;;;;;;5033738;28;20852;-65
2021/12/05 10:59:00;;;;;;;1.90;1.20;;;;;;;;;;5033884;28;20430;-66
2021/12/05 11:01:27;;;;;;;2.33;1.50;;;;;;;;;;5033862;28;20438;-67
2021/12/05 11:04:02;;;;;;;1.30;1.07;;;;;;;;;;5033997;28;20405;-66
2021/12/05 11:06:28;;;;;;;2.17;1.40;;;;;;;;;;5033812;28;20406;-66
2021/12/05 11:08:55;;;;;;;1.33;0.97;;;;;;;;;;5033620;28;20414;-66
2021/12/05 11:11:21;;;;;;;1.77;1.00;;;;;;;;;;5032427;28;20781;-66
2021/12/05 11:13:48;;;;;;;1.67;1.00;;;;;;;;;;5033765;28;20434;-66
2021/12/05 11:16:32;;;;;;;1.77;0.97;;;;;;;;;;5033777;28;20494;-66
2021/12/05 11:18:58;;;;;;;1.10;0.90;;;;;;;;;;5033769;28;20498;-67
2021/12/05 11:21:29;;;;;;;3.43;1.20;;;;;;;;;;5033588;28;20434;-66
2021/12/05 11:24:08;;;;;;;2.27;1.03;;;;;;;;;;5032468;28;20421;-67
2021/12/05 11:26:34;;;;;;;1.93;1.40;;;;;;;;;;5050614;28;20445;-66
2021/12/05 11:29:00;;;;;;;4.90;1.40;;;;;;;;;;5053372;28;20886;-67
2021/12/05 11:31:28;;;;;;;5.40;1.00;;;;;;;;;;5052170;28;20424;-68
2021/12/05 11:33:56;;;;;;;2.00;1.20;;;;;;;;;;5053298;28;20895;-67
2021/12/05 11:36:26;;;;;;;1.90;1.00;;;;;;;;;;5034562;28;21008;-68
2021/12/05 11:38:52;;;;;;;1.27;1.10;;;;;;;;;;5033240;28;20405;-68
2021/12/05 11:41:22;;;;;;;1.47;1.10;;;;;;;;;;5032142;28;20422;-68
2021/12/05 11:43:49;;;;;;;2.37;1.40;;;;;;;;;;5033268;28;20426;-67
2021/12/05 11:46:25;;;;;;;1.70;1.60;;;;;;;;;;5033295;28;20429;-67
2021/12/05 11:49:05;;;;;;;1.80;1.20;;;;;;;;;;5033240;28;20414;-66
2021/12/05 11:51:34;;;;;;;1.63;1.20;;;;;;;;;;5031437;28;20442;-66
2021/12/05 11:54:00;;;;;;;1.87;1.30;;;;;;;;;;5033202;28;20403;-67
2021/12/05 11:56:29;;;;;;;1.83;1.50;;;;;;;;;;5032807;28;20483;-66
2021/12/05 11:59:14;;;;;;;2.60;1.60;;;;;;;;;;5033098;28;20411;-66
2021/12/05 12:01:43;;;;;;;1.63;1.27;;;;;;;;;;5033187;28;20418;-66
2021/12/05 12:04:10;;;;;;;1.40;1.30;;;;;;;;;;5033079;28;20414;-66
2021/12/05 12:06:36;;;;;;;1.63;1.00;;;;;;;;;;5032968;28;20395;-66
2021/12/05 12:09:03;;;;;;;1.83;1.30;;;;;;;;;;5033110;28;20455;-67
2021/12/05 12:11:29;;;;;;;1.40;1.20;;;;;;;;;;5035513;28;20405;-68
2021/12/05 12:13:55;;;;;;;1.67;1.37;;;;;;;;;;5033023;28;20418;-67
2021/12/05 12:16:21;;;;;;;1.97;1.60;;;;;;;;;;5037452;28;20518;-66
2021/12/05 12:18:49;;;;;;;4.53;1.30;;;;;;;;;;5052923;28;20870;-68
2021/12/05 12:21:26;;;;;;;1.37;1.27;;;;;;;;;;5052895;28;20426;-68
2021/12/05 12:23:54;;;;;;;2.87;1.37;;;;;;;;;;5052037;28;20422;-68
2021/12/05 12:26:21;;;;;;;1.50;1.30;;;;;;;;;;5052747;28;20425;-68
2021/12/05 12:28:47;;;;;;;2.60;1.33;;;;;;;;;;5052777;28;20817;-69
2021/12/05 12:31:21;;;;;;;2.17;1.17;;;;;;;;;;5051991;28;20488;-68
2021/12/05 12:33:49;;;;;;;1.50;1.07;;;;;;;;;;5052613;28;20444;-68
2021/12/05 12:36:15;;;;;;;1.70;1.30;;;;;;;;;;5052323;28;20878;-69
2021/12/05 12:38:45;;;;;;;1.37;1.20;;;;;;;;;;5052296;28;20492;-68
2021/12/05 12:41:13;;;;;;;1.50;1.30;;;;;;;;;;5031469;28;20452;-68
2021/12/05 12:43:42;;;;;;;1.43;1.00;;;;;;;;;;5032737;28;20406;-69
2021/12/05 12:46:20;;;;;;;2.80;1.30;;;;;;;;;;5032597;28;20936;-68
2021/12/05 12:48:47;;;;;;;1.50;1.20;;;;;;;;;;5032739;28;20430;-68
2021/12/05 12:51:36;;;;;;;1.30;1.00;;;;;;;;;;5032583;28;20489;-67
2021/12/05 12:54:06;;;;;;;1.57;1.00;;;;;;;;;;5032205;28;20901;-66
2021/12/05 12:56:32;;;;;;;1.30;0.93;;;;;;;;;;5039893;28;21059;-66
2021/12/05 12:59:00;;;;;;;1.87;0.77;;;;;;;;;;5051247;28;20420;-67
2021/12/05 13:12:41;;;;;;;1.70;0.90;;;;;;;;;;5036070;28;20456;-67
2021/12/05 13:15:16;;;;;;;1.87;0.80;;;;;;;;;;5035855;28;20478;-66
2021/12/05 13:17:46;;;;;;;1.77;1.00;;;;;;;;;;5035982;28;20405;-67
2021/12/05 13:20:15;;;;;;;1.73;0.73;;;;;;;;;;5036088;28;20414;-67
2021/12/05 13:23:00;;;;;;;0.97;0.80;;;;;;;;;;5034443;28;20416;-67
2021/12/05 13:25:26;;;;;;;1.53;0.97;;;;;;;;;;5035624;28;20860;-67
2021/12/05 13:27:52;;;;;;;3.07;1.00;;;;;;;;;;5035779;28;20913;-66
2021/12/05 13:30:32;;;;;;;5.30;1.23;;;;;;;;;;5034597;28;20826;-66
2021/12/05 13:33:16;;;;;;;1.00;0.90;;;;;;;;;;5035572;28;20426;-67
2021/12/05 13:35:43;;;;;;;2.27;1.20;;;;;;;;;;5035620;28;20478;-69
2021/12/05 13:38:29;;;;;;;1.20;0.80;;;;;;;;;;5035644;28;20499;-67
2021/12/05 13:40:56;;;;;;;1.30;0.87;;;;;;;;;;5040415;28;20499;-67
2021/12/05 13:43:29;;;;;;;0.90;0.77;;;;;;;;;;5055408;28;20413;-68
2021/12/05 13:45:57;;;;;;;1.10;0.67;;;;;;;;;;5055180;28;20894;-69
2021/12/05 13:48:25;;;;;;;0.80;0.80;;;;;;;;;;5054092;28;20448;-67
2021/12/05 13:50:57;;;;;;;2.53;1.17;;;;;;;;;;5036874;28;20476;-68
2021/12/05 13:53:27;;;;;;;1.40;0.70;;;;;;;;;;5035324;28;20402;-67
2021/12/05 13:55:53;;;;;;;0.80;0.67;;;;;;;;;;5034894;28;20505;-69
2021/12/05 13:58:32;;;;;;;2.43;1.00;;;;;;;;;;5037691;28;20450;-68
2021/12/05 14:01:16;;;;;;;1.30;1.10;;;;;;;;;;5055147;28;20405;-67
2021/12/05 14:03:42;;;;;;;0.90;0.70;;;;;;;;;;5055021;28;20413;-69
2021/12/05 14:06:24;;;;;;;1.50;1.17;;;;;;;;;;5051800;28;20412;-68
2021/12/05 14:08:50;;;;;;;2.27;0.90;;;;;;;;;;5034993;28;20427;-69
2021/12/05 14:11:16;;;;;;;1.03;0.70;;;;;;;;;;5034968;28;20402;-69
2021/12/05 14:13:42;;;;;;;1.90;1.30;;;;;;;;;;5034722;28;20469;-69
2021/12/05 14:16:08;;;;;;;2.40;1.00;;;;;;;;;;5034782;28;20848;-68
2021/12/05 14:18:34;;;;;;;1.73;0.90;;;;;;;;;;5048819;28;20422;-68
2021/12/05 14:21:17;;;;;;;3.20;1.63;;;;;;;;;;5054649;28;20414;-69
2021/12/05 14:23:50;;;;;;;2.30;1.20;;;;;;;;;;5054695;28;20424;-69
2021/12/05 14:26:17;;;;;;;1.30;0.93;;;;;;;;;;5054389;28;20456;-68
2021/12/05 14:28:43;;;;;;;1.73;1.30;;;;;;;;;;5053686;28;20765;-69
2021/12/05 14:31:09;;;;;;;1.73;1.30;;;;;;;;;;5054514;28;20416;-68
2021/12/05 14:33:51;;;;;;;1.90;1.20;;;;;;;;;;5054530;28;20406;-67
2021/12/05 14:36:29;;;;;;;1.00;0.90;;;;;;;;;;5051091;28;20480;-67
2021/12/05 14:39:06;;;;;;;1.30;1.00;;;;;;;;;;5034518;28;20398;-67
2021/12/05 14:41:32;;;;;;;1.80;1.10;;;;;;;;;;5047426;28;20410;-67
2021/12/05 14:43:58;;;;;;;1.80;1.13;;;;;;;;;;5052897;28;20458;-67
2021/12/05 14:46:25;;;;;;;2.70;1.40;;;;;;;;;;5053338;28;20418;-67
2021/12/05 14:48:55;;;;;;;4.93;1.40;;;;;;;;;;5054263;28;20405;-69
2021/12/05 14:51:34;;;;;;;3.10;1.90;;;;;;;;;;5054209;28;20409;-68
2021/12/05 14:54:00;;;;;;;2.13;1.40;;;;;;;;;;5054187;28;20477;-68
2021/12/05 14:56:30;;;;;;;2.70;1.50;;;;;;;;;;5052887;28;20485;-69
2021/12/05 14:59:10;;;;;;;1.80;1.57;;;;;;;;;;5053962;28;20753;-68
2021/12/05 15:01:41;;;;;;;2.70;1.63;;;;;;;;;;5054041;28;20897;-69
2021/12/05 15:04:09;;;;;;;2.07;1.60;;;;;;;;;;5050393;28;20469;-69
2021/12/05 15:06:42;;;;;;;2.40;1.50;;;;;;;;;;5032714;28;20433;-68
2021/12/05 15:09:16;;;;;;;2.77;1.77;;;;;;;;;;5034004;28;20501;-69
2021/12/05 15:11:54;;;;;;;1.93;1.77;;;;;;;;;;5034916;28;20633;-68
2021/12/05 15:14:20;;;;;;;2.47;1.87;;;;;;;;;;5053724;28;20892;-68
2021/12/05 15:16:55;;;;;;;3.57;1.87;;;;;;;;;;5052453;28;20405;-68
2021/12/05 15:19:21;;;;;;;4.40;2.23;;;;;;;;;;5053649;28;20408;-67
2021/12/05 15:21:47;;;;;;;1.80;1.50;;;;;;;;;;5052612;28;20773;-67
2021/12/05 15:24:14;;;;;;;4.07;1.90;;;;;;;;;;5053479;28;20904;-67
2021/12/05 15:26:41;;;;;;;4.63;2.07;;;;;;;;;;5052753;28;20413;-68
2021/12/05 15:29:07;;;;;;;2.73;2.20;;;;;;;;;;5053591;28;20459;-68
2021/12/05 15:31:34;;;;;;;2.10;1.83;;;;;;;;;;5038306;28;20433;-68
2021/12/05 15:34:02;;;;;;;3.17;2.40;;;;;;;;;;5033475;28;20502;-66
2021/12/05 15:36:34;;;;;;;2.73;2.40;;;;;;;;;;5033289;28;20478;-66
2021/12/05 15:39:10;;;;;;;4.23;2.10;;;;;;;;;;5033225;28;20407;-66
2021/12/05 15:41:36;;;;;;;4.60;2.00;;;;;;;;;;5033512;28;20399;-66
2021/12/05 15:44:02;;;;;;;2.80;2.27;;;;;;;;;;5033363;28;20811;-65
2021/12/05 15:46:28;;;;;;;2.37;2.17;;;;;;;;;;5033285;28;20410;-66
2021/12/05 15:48:56;;;;;;;2.60;2.40;;;;;;;;;;5043392;28;20930;-66
2021/12/05 15:51:22;;;;;;;2.40;2.20;;;;;;;;;;5053136;28;20435;-66
2021/12/05 15:53:48;;;;;;;3.80;2.03;;;;;;;;;;5053136;28;20405;-66
2021/12/05 15:56:17;;;;;;;3.03;2.40;;;;;;;;;;5052760;28;20478;-66
2021/12/05 15:58:51;;;;;;;2.37;2.00;;;;;;;;;;5039588;28;20418;-66
2021/12/05 16:01:21;;;;;;;2.93;2.63;;;;;;;;;;5033168;28;20429;-66
2021/12/05 16:03:52;;;;;;;3.43;2.03;;;;;;;;;;5033165;28;20469;-66
2021/12/05 16:06:20;;;;;;;4.20;3.10;;;;;;;;;;5034821;28;20513;-68
2021/12/05 16:08:49;;;;;;;4.83;3.97;;;;;;;;;;5035231;28;20914;-68
2021/12/05 16:11:17;;;;;;;3.90;3.20;;;;;;;;;;5052848;28;20419;-67
2021/12/05 16:13:43;;;;;;;3.70;2.40;;;;;;;;;;5052081;28;20397;-67
2021/12/05 16:16:11;;;;;;;4.70;3.23;;;;;;;;;;5048252;28;20485;-67
2021/12/05 16:18:38;;;;;;;6.30;3.43;;;;;;;;;;5052980;28;20448;-69
2021/12/05 16:21:06;;;;;;;5.57;3.77;;;;;;;;;;5052871;28;20410;-69
2021/12/05 16:23:34;;;;;;;5.80;3.60;;;;;;;;;;5052065;28;20893;-67
2021/12/05 16:26:15;;;;;;;5.40;3.73;;;;;;;;;;5052680;28;20511;-69
2021/12/05 16:28:47;;;;;;;5.03;4.07;;;;;;;;;;5052764;28;20756;-69
2021/12/05 16:31:21;;;;;;;6.70;3.07;;;;;;;;;;5048897;28;20473;-68
2021/12/05 16:33:52;;;;;;;5.83;3.43;;;;;;;;;;5032780;28;20407;-67
2021/12/05 16:36:19;;;;;;;4.00;3.03;;;;;;;;;;5048458;28;20527;-67
2021/12/05 16:38:50;;;;;;;3.97;3.17;;;;;;;;;;5056702;28;20452;-67
2021/12/05 16:41:19;;;;;;;4.37;3.33;;;;;;;;;;5055699;28;20431;-67
2021/12/05 16:43:47;;;;;;;3.70;3.10;;;;;;;;;;5056564;28;20413;-67
2021/12/05 16:46:20;;;;;;;4.27;2.30;;;;;;;;;;5056519;28;20397;-67
2021/12/05 16:48:46;;;;;;;3.57;1.97;;;;;;;;;;5042608;28;20503;-67
2021/12/05 16:51:18;;;;;;;3.83;1.93;;;;;;;;;;5036515;28;20404;-67
2021/12/05 16:53:47;;;;;;;4.27;2.10;;;;;;;;;;5036538;28;20396;-67
2021/12/05 16:56:16;;;;;;;2.60;1.60;;;;;;;;;;5047751;28;20482;-68
2021/12/05 16:58:42;;;;;;;3.17;2.87;;;;;;;;;;5056370;28;20410;-67
2021/12/05 17:01:14;;;;;;;4.80;2.77;;;;;;;;;;5056162;28;20398;-67
2021/12/05 17:03:43;;;;;;;4.07;2.60;;;;;;;;;;5055471;28;20491;-67
2021/12/05 17:06:11;;;;;;;4.10;2.93;;;;;;;;;;5056058;28;20414;-67
2021/12/05 17:08:44;;;;;;;3.63;2.90;;;;;;;;;;5056117;28;20886;-68
2021/12/05 17:11:12;;;;;;;3.97;2.60;;;;;;;;;;5056170;28;20436;-68
2021/12/05 17:13:42;;;;;;;3.20;3.00;;;;;;;;;;5037499;28;20569;-69
2021/12/05 17:16:13;;;;;;;2.53;2.33;;;;;;;;;;5036005;28;20463;-69
2021/12/05 17:18:42;;;;;;;3.07;2.60;;;;;;;;;;5035888;28;20415;-70
2021/12/05 17:21:08;;;;;;;2.77;2.50;;;;;;;;;;5051943;28;20415;-69
2021/12/05 17:23:36;;;;;;;2.73;2.43;;;;;;;;;;5055688;28;20472;-69
2021/12/05 17:26:07;;;;;;;2.80;2.60;;;;;;;;;;5055581;28;20420;-67
2021/12/05 17:28:37;;;;;;;4.17;2.73;;;;;;;;;;5054799;28;20515;-69
2021/12/05 17:31:05;;;;;;;4.00;2.87;;;;;;;;;;5055679;28;20904;-67
2021/12/05 17:33:39;;;;;;;4.27;3.43;;;;;;;;;;5054588;28;20406;-65
2021/12/05 17:36:20;;;;;;;6.33;4.57;;;;;;;;;;5052406;28;20509;-67
2021/12/05 17:38:46;;;;;;;5.43;3.80;;;;;;;;;;5035744;28;20409;-67
2021/12/05 17:41:12;;;;;;;6.23;3.73;;;;;;;;;;5035676;28;20419;-67
2021/12/05 17:43:38;;;;;;;6.17;5.10;;;;;;;;;;5035573;28;20407;-67
2021/12/05 17:46:04;;;;;;;6.30;4.00;;;;;;;;;;5043673;28;20427;-67
2021/12/05 17:48:30;;;;;;;6.37;4.80;;;;;;;;;;5054800;28;20406;-67
2021/12/05 17:50:56;;;;;;;7.00;4.93;;;;;;;;;;5054017;28;20922;-66
2021/12/05 17:53:29;;;;;;;9.20;5.80;;;;;;;;;;5054076;28;20769;-67
2021/12/05 17:56:02;;;;;;;9.10;6.60;;;;;;;;;;5054063;28;20485;-67
2021/12/05 17:59:05;;;;;;;5.63;4.43;;;;;;;;;;5055350;28;20391;-66
2021/12/05 18:04:06;;;;;;;6.53;5.17;;;;;;;;;;5055173;28;20985;-66
2021/12/05 18:06:32;;;;;;;5.93;4.73;;;;;;;;;;5054078;28;20435;-67
2021/12/05 18:08:58;;;;;;;8.93;5.80;;;;;;;;;;5055088;28;20460;-66
2021/12/05 18:11:25;;;;;;;9.03;6.87;;;;;;;;;;5054873;28;20409;-66
2021/12/05 18:13:54;;;;;;;10.20;7.20;;;;;;;;;;5050792;28;20422;-67
2021/12/05 18:16:24;;;;;;;13.40;8.43;;;;;;;;;;5034875;28;20458;-67
2021/12/05 18:18:51;;;;;;;14.20;9.27;;;;;;;;;;5033711;28;20416;-67
2021/12/05 18:21:18;;;;;;;15.00;8.80;;;;;;;;;;5034888;28;20391;-67
2021/12/05 18:23:44;;;;;;;12.20;7.90;;;;;;;;;;5050436;28;20427;-69
2021/12/05 18:26:11;;;;;;;7.27;6.37;;;;;;;;;;5054470;28;20433;-68
2021/12/05 18:28:38;;;;;;;8.40;5.97;;;;;;;;;;5054173;28;20406;-67
2021/12/05 18:31:04;;;;;;;7.10;5.63;;;;;;;;;;5053756;28;20427;-67
2021/12/05 18:33:31;;;;;;;7.77;5.60;;;;;;;;;;5054671;28;20489;-66
2021/12/05 18:35:57;;;;;;;6.97;5.37;;;;;;;;;;5054572;28;20476;-67
2021/12/05 18:38:24;;;;;;;9.67;6.00;;;;;;;;;;5054566;28;20413;-67
2021/12/05 18:40:52;;;;;;;11.33;5.93;;;;;;;;;;5040887;28;20430;-68
2021/12/05 18:43:22;;;;;;;8.80;5.87;;;;;;;;;;5034443;28;20485;-69
2021/12/05 18:45:48;;;;;;;11.90;6.00;;;;;;;;;;5034355;28;20869;-67
2021/12/05 18:48:15;;;;;;;10.50;5.97;;;;;;;;;;5034456;28;20403;-68
2021/12/05 18:50:42;;;;;;;9.10;5.53;;;;;;;;;;5034179;28;20478;-68
2021/12/05 18:53:08;;;;;;;8.13;6.00;;;;;;;;;;5034231;28;20396;-70
2021/12/05 18:55:34;;;;;;;8.50;6.00;;;;;;;;;;5033861;28;20466;-70
2021/12/05 18:58:07;;;;;;;6.83;5.47;;;;;;;;;;5034302;28;20426;-68
2021/12/05 19:00:41;;;;;;;8.00;5.83;;;;;;;;;;5033223;28;20477;-69
2021/12/05 19:06:07;;;;;;;11.37;6.83;;;;;;;;;;5034208;28;20411;-67
2021/12/05 19:08:40;;;;;;;11.70;7.67;;;;;;;;;;5034089;28;20468;-69
2021/12/05 19:13:52;;;;;;;10.30;6.60;;;;;;;;;;5034202;28;20403;-67
2021/12/05 19:16:18;;;;;;;10.63;7.77;;;;;;;;;;5044100;28;20473;-69
2021/12/05 19:18:44;;;;;;;11.90;8.30;;;;;;;;;;5052543;28;20423;-69
2021/12/05 19:21:10;;;;;;;11.93;9.20;;;;;;;;;;5053538;28;20824;-68
2021/12/05 19:23:36;;;;;;;10.93;7.20;;;;;;;;;;5053582;28;20488;-69
2021/12/05 19:26:04;;;;;;;9.37;6.63;;;;;;;;;;5052560;28;20447;-68
2021/12/05 19:28:30;;;;;;;10.90;8.23;;;;;;;;;;5053504;28;20469;-69
2021/12/05 19:30:57;;;;;;;11.47;8.00;;;;;;;;;;5053480;28;20417;-68
2021/12/05 19:33:24;;;;;;;10.47;7.03;;;;;;;;;;5048334;28;20446;-68
2021/12/05 19:35:50;;;;;;;8.03;6.67;;;;;;;;;;5033554;28;20467;-66
2021/12/05 19:38:23;;;;;;;9.30;7.17;;;;;;;;;;5033607;28;20427;-68
2021/12/05 19:40:49;;;;;;;12.07;7.07;;;;;;;;;;5033490;28;20818;-67
2021/12/05 19:43:17;;;;;;;8.63;6.27;;;;;;;;;;5033361;28;20427;-68
2021/12/05 19:45:43;;;;;;;10.73;6.43;;;;;;;;;;5033326;28;20488;-66
2021/12/05 19:48:09;;;;;;;9.93;7.00;;;;;;;;;;5033386;28;20417;-67
2021/12/05 19:50:40;;;;;;;9.87;7.07;;;;;;;;;;5032052;28;20420;-67
2021/12/05 19:53:06;;;;;;;9.87;7.40;;;;;;;;;;5033397;28;20403;-68
2021/12/05 19:55:32;;;;;;;10.00;7.10;;;;;;;;;;5033073;28;20503;-67
2021/12/05 19:57:59;;;;;;;14.23;8.43;;;;;;;;;;5033269;28;20403;-66
2021/12/05 20:00:26;;;;;;;11.57;8.10;;;;;;;;;;5032979;28;20947;-67
2021/12/05 20:02:53;;;;;;;9.50;7.77;;;;;;;;;;5033139;28;20400;-67
2021/12/05 20:05:21;;;;;;;10.27;8.53;;;;;;;;;;5033127;28;20403;-67
2021/12/05 20:07:47;;;;;;;13.67;9.27;;;;;;;;;;5042151;28;20444;-67
2021/12/05 20:10:15;;;;;;;17.03;11.00;;;;;;;;;;5052979;28;20406;-67
2021/12/05 20:12:41;;;;;;;16.27;11.00;;;;;;;;;;5055451;28;20465;-67
2021/12/05 20:15:08;;;;;;;14.50;10.10;;;;;;;;;;5057121;28;20453;-67
2021/12/05 20:17:34;;;;;;;13.07;9.57;;;;;;;;;;5055055;28;20435;-68
2021/12/05 20:20:03;;;;;;;14.50;9.70;;;;;;;;;;5057066;28;20397;-67
2021/12/05 20:22:29;;;;;;;12.90;9.53;;;;;;;;;;5055631;28;20412;-68
2021/12/05 20:24:55;;;;;;;15.97;9.90;;;;;;;;;;5055970;28;20448;-68
2021/12/05 20:27:21;;;;;;;16.00;9.80;;;;;;;;;;5055929;28;20396;-69
2021/12/05 20:29:47;;;;;;;14.73;9.10;;;;;;;;;;5054510;28;20409;-68
2021/12/05 20:32:13;;;;;;;13.70;9.77;;;;;;;;;;5056817;28;20417;-69
2021/12/05 20:34:39;;;;;;;11.87;9.40;;;;;;;;;;5043450;28;20515;-66